Clearwater, Idaho
Current Conditions -  °F | °C
As of 2:55 AM on Friday 28 Nov 2014 (Local Time) from KGIC Reporting Station
Broken Clouds Broken Clouds  
Wind Chill: 50°   Ceiling: 7500
Heat Index: 50°   Visibility: 10mi
Dew Point: 38°   Wind: 23mph
Humidity: 64%   Direction: 220°SW
Pressure: 29.79"   Gusts: 29mph
Location:  46.2989°N, 115.619°W
Report Text: KGIC 281055Z AUTO 22020G25KT 10SM SCT036 BKN075 BKN095 10/03 A2979 RMK AO1 T01000034
Loading
Personal Weather Stations






























Interactive Weather Map New forecast layout! Learn more

10-Day Weather Forecast

Advertisements
Track Severe Weather on mobile